sensor_id;sensor_type;location;lat;lon;timestamp;P1;durP1;ratioP1;P2;durP2;ratioP2
36799;SDS011;22752;51.960;5.886;2023-04-03T00:01:33;6.37;;;1.83;;
36799;SDS011;22752;51.960;5.886;2023-04-03T00:03:58;3.43;;;1.40;;
36799;SDS011;22752;51.960;5.886;2023-04-03T00:06:24;4.10;;;1.57;;
36799;SDS011;22752;51.960;5.886;2023-04-03T00:08:51;4.63;;;2.10;;
36799;SDS011;22752;51.960;5.886;2023-04-03T00:11:17;4.07;;;1.77;;
36799;SDS011;22752;51.960;5.886;2023-04-03T00:13:44;6.73;;;1.70;;
36799;SDS011;22752;51.960;5.886;2023-04-03T00:16:10;3.03;;;1.77;;
36799;SDS011;22752;51.960;5.886;2023-04-03T00:18:36;3.73;;;1.87;;
36799;SDS011;22752;51.960;5.886;2023-04-03T00:21:03;3.33;;;1.57;;
36799;SDS011;22752;51.960;5.886;2023-04-03T00:23:29;7.23;;;1.60;;
36799;SDS011;22752;51.960;5.886;2023-04-03T00:25:54;4.33;;;1.87;;
36799;SDS011;22752;51.960;5.886;2023-04-03T00:28:20;4.87;;;1.67;;
36799;SDS011;22752;51.960;5.886;2023-04-03T00:30:46;7.07;;;2.00;;
36799;SDS011;22752;51.960;5.886;2023-04-03T00:33:14;8.57;;;2.00;;
36799;SDS011;22752;51.960;5.886;2023-04-03T00:35:39;5.17;;;2.30;;
36799;SDS011;22752;51.960;5.886;2023-04-03T00:38:06;5.03;;;1.83;;
36799;SDS011;22752;51.960;5.886;2023-04-03T00:40:38;11.67;;;2.17;;
36799;SDS011;22752;51.960;5.886;2023-04-03T00:43:15;10.97;;;2.13;;
36799;SDS011;22752;51.960;5.886;2023-04-03T00:45:47;4.73;;;1.80;;
36799;SDS011;22752;51.960;5.886;2023-04-03T00:48:18;6.63;;;1.80;;
36799;SDS011;22752;51.960;5.886;2023-04-03T00:50:50;5.57;;;2.13;;
36799;SDS011;22752;51.960;5.886;2023-04-03T00:53:17;3.93;;;1.90;;
36799;SDS011;22752;51.960;5.886;2023-04-03T00:55:47;4.30;;;1.87;;
36799;SDS011;22752;51.960;5.886;2023-04-03T00:58:14;5.07;;;1.90;;
36799;SDS011;22752;51.960;5.886;2023-04-03T01:00:43;4.80;;;1.80;;
36799;SDS011;22752;51.960;5.886;2023-04-03T01:03:14;3.33;;;1.73;;
36799;SDS011;22752;51.960;5.886;2023-04-03T01:05:40;5.60;;;2.00;;
36799;SDS011;22752;51.960;5.886;2023-04-03T01:08:06;5.57;;;1.97;;
36799;SDS011;22752;51.960;5.886;2023-04-03T01:10:32;4.93;;;2.13;;
36799;SDS011;22752;51.960;5.886;2023-04-03T01:12:57;6.27;;;2.07;;
36799;SDS011;22752;51.960;5.886;2023-04-03T01:15:26;5.13;;;2.07;;
36799;SDS011;22752;51.960;5.886;2023-04-03T01:17:56;5.33;;;2.03;;
36799;SDS011;22752;51.960;5.886;2023-04-03T01:25:37;4.90;;;2.33;;
36799;SDS011;22752;51.960;5.886;2023-04-03T01:28:05;5.40;;;1.90;;
36799;SDS011;22752;51.960;5.886;2023-04-03T01:30:38;8.47;;;2.27;;
36799;SDS011;22752;51.960;5.886;2023-04-03T01:33:13;5.93;;;1.80;;
36799;SDS011;22752;51.960;5.886;2023-04-03T01:35:39;4.20;;;2.00;;
36799;SDS011;22752;51.960;5.886;2023-04-03T01:38:05;4.23;;;1.80;;
36799;SDS011;22752;51.960;5.886;2023-04-03T01:40:31;6.60;;;2.33;;
36799;SDS011;22752;51.960;5.886;2023-04-03T01:42:57;6.93;;;2.30;;
36799;SDS011;22752;51.960;5.886;2023-04-03T01:45:22;4.63;;;1.90;;
36799;SDS011;22752;51.960;5.886;2023-04-03T01:47:48;6.43;;;1.93;;
36799;SDS011;22752;51.960;5.886;2023-04-03T01:50:14;4.17;;;2.00;;
36799;SDS011;22752;51.960;5.886;2023-04-03T01:52:40;7.17;;;2.20;;
36799;SDS011;22752;51.960;5.886;2023-04-03T01:55:06;6.07;;;2.33;;
36799;SDS011;22752;51.960;5.886;2023-04-03T01:57:31;5.33;;;2.00;;
36799;SDS011;22752;51.960;5.886;2023-04-03T01:59:57;6.33;;;2.33;;
36799;SDS011;22752;51.960;5.886;2023-04-03T02:02:23;8.90;;;2.57;;
36799;SDS011;22752;51.960;5.886;2023-04-03T02:04:48;6.60;;;2.20;;
36799;SDS011;22752;51.960;5.886;2023-04-03T02:07:14;7.60;;;2.30;;
36799;SDS011;22752;51.960;5.886;2023-04-03T02:09:40;8.30;;;2.30;;
36799;SDS011;22752;51.960;5.886;2023-04-03T02:12:05;5.00;;;2.00;;
36799;SDS011;22752;51.960;5.886;2023-04-03T02:14:31;7.17;;;2.27;;
36799;SDS011;22752;51.960;5.886;2023-04-03T02:16:57;6.07;;;2.00;;
36799;SDS011;22752;51.960;5.886;2023-04-03T02:19:25;6.70;;;2.30;;
36799;SDS011;22752;51.960;5.886;2023-04-03T02:21:51;5.40;;;2.60;;
36799;SDS011;22752;51.960;5.886;2023-04-03T02:24:17;5.57;;;2.30;;
36799;SDS011;22752;51.960;5.886;2023-04-03T02:26:42;9.90;;;2.30;;
36799;SDS011;22752;51.960;5.886;2023-04-03T02:29:08;5.90;;;2.23;;
36799;SDS011;22752;51.960;5.886;2023-04-03T02:31:34;7.10;;;2.50;;
36799;SDS011;22752;51.960;5.886;2023-04-03T02:33:59;11.17;;;2.67;;
36799;SDS011;22752;51.960;5.886;2023-04-03T02:36:25;11.63;;;2.60;;
36799;SDS011;22752;51.960;5.886;2023-04-03T02:38:51;8.17;;;2.40;;
36799;SDS011;22752;51.960;5.886;2023-04-03T02:41:16;9.63;;;2.50;;
36799;SDS011;22752;51.960;5.886;2023-04-03T02:43:42;6.07;;;2.17;;
36799;SDS011;22752;51.960;5.886;2023-04-03T02:46:07;6.23;;;2.53;;
36799;SDS011;22752;51.960;5.886;2023-04-03T02:48:33;9.63;;;2.40;;
36799;SDS011;22752;51.960;5.886;2023-04-03T02:51:00;6.03;;;2.20;;
36799;SDS011;22752;51.960;5.886;2023-04-03T02:53:26;10.03;;;3.17;;
36799;SDS011;22752;51.960;5.886;2023-04-03T02:55:51;7.03;;;2.83;;
36799;SDS011;22752;51.960;5.886;2023-04-03T02:58:17;6.47;;;2.20;;
36799;SDS011;22752;51.960;5.886;2023-04-03T03:00:43;7.90;;;2.40;;
36799;SDS011;22752;51.960;5.886;2023-04-03T03:03:08;4.83;;;2.27;;
36799;SDS011;22752;51.960;5.886;2023-04-03T03:05:34;7.20;;;2.50;;
36799;SDS011;22752;51.960;5.886;2023-04-03T03:08:00;9.77;;;2.50;;
36799;SDS011;22752;51.960;5.886;2023-04-03T03:10:26;7.83;;;2.37;;
36799;SDS011;22752;51.960;5.886;2023-04-03T03:12:52;5.13;;;2.40;;
36799;SDS011;22752;51.960;5.886;2023-04-03T03:15:17;5.40;;;2.33;;
36799;SDS011;22752;51.960;5.886;2023-04-03T03:17:44;6.73;;;2.90;;
36799;SDS011;22752;51.960;5.886;2023-04-03T03:20:10;5.73;;;2.43;;
36799;SDS011;22752;51.960;5.886;2023-04-03T03:22:37;6.63;;;2.23;;
36799;SDS011;22752;51.960;5.886;2023-04-03T03:25:03;9.87;;;2.67;;
36799;SDS011;22752;51.960;5.886;2023-04-03T03:27:29;7.37;;;2.27;;
36799;SDS011;22752;51.960;5.886;2023-04-03T03:29:54;9.10;;;2.43;;
36799;SDS011;22752;51.960;5.886;2023-04-03T03:32:20;8.83;;;2.73;;
36799;SDS011;22752;51.960;5.886;2023-04-03T03:34:46;7.23;;;2.00;;
36799;SDS011;22752;51.960;5.886;2023-04-03T03:37:11;8.87;;;2.83;;
36799;SDS011;22752;51.960;5.886;2023-04-03T03:39:37;8.53;;;2.33;;
36799;SDS011;22752;51.960;5.886;2023-04-03T03:42:03;7.83;;;2.67;;
36799;SDS011;22752;51.960;5.886;2023-04-03T03:44:28;7.20;;;2.43;;
36799;SDS011;22752;51.960;5.886;2023-04-03T03:46:54;5.17;;;2.53;;
36799;SDS011;22752;51.960;5.886;2023-04-03T03:49:20;7.13;;;2.60;;
36799;SDS011;22752;51.960;5.886;2023-04-03T03:51:46;8.80;;;2.67;;
36799;SDS011;22752;51.960;5.886;2023-04-03T03:54:12;8.23;;;2.40;;
36799;SDS011;22752;51.960;5.886;2023-04-03T03:56:38;5.97;;;2.27;;
36799;SDS011;22752;51.960;5.886;2023-04-03T03:59:04;9.67;;;2.83;;
36799;SDS011;22752;51.960;5.886;2023-04-03T04:01:30;9.20;;;2.70;;
36799;SDS011;22752;51.960;5.886;2023-04-03T04:03:56;8.57;;;2.67;;
36799;SDS011;22752;51.960;5.886;2023-04-03T04:06:22;7.93;;;2.37;;
36799;SDS011;22752;51.960;5.886;2023-04-03T04:08:48;8.77;;;2.67;;
36799;SDS011;22752;51.960;5.886;2023-04-03T04:11:14;6.67;;;2.40;;
36799;SDS011;22752;51.960;5.886;2023-04-03T04:13:39;7.90;;;2.50;;
36799;SDS011;22752;51.960;5.886;2023-04-03T04:16:05;7.73;;;2.60;;
36799;SDS011;22752;51.960;5.886;2023-04-03T04:18:32;8.27;;;2.53;;
36799;SDS011;22752;51.960;5.886;2023-04-03T04:20:58;7.87;;;3.03;;
36799;SDS011;22752;51.960;5.886;2023-04-03T04:23:23;5.70;;;2.23;;
36799;SDS011;22752;51.960;5.886;2023-04-03T04:25:49;5.80;;;2.33;;
36799;SDS011;22752;51.960;5.886;2023-04-03T04:28:15;6.00;;;2.40;;
36799;SDS011;22752;51.960;5.886;2023-04-03T04:30:41;7.83;;;2.97;;
36799;SDS011;22752;51.960;5.886;2023-04-03T04:33:07;8.37;;;2.60;;
36799;SDS011;22752;51.960;5.886;2023-04-03T04:35:33;9.63;;;3.23;;
36799;SDS011;22752;51.960;5.886;2023-04-03T04:37:59;15.37;;;3.27;;
36799;SDS011;22752;51.960;5.886;2023-04-03T04:40:24;7.43;;;2.57;;
36799;SDS011;22752;51.960;5.886;2023-04-03T04:42:51;10.17;;;2.70;;
36799;SDS011;22752;51.960;5.886;2023-04-03T04:45:16;12.13;;;2.73;;
36799;SDS011;22752;51.960;5.886;2023-04-03T04:47:42;7.70;;;2.73;;
36799;SDS011;22752;51.960;5.886;2023-04-03T04:50:08;9.20;;;2.80;;
36799;SDS011;22752;51.960;5.886;2023-04-03T04:52:34;6.03;;;2.53;;
36799;SDS011;22752;51.960;5.886;2023-04-03T04:55:00;11.53;;;3.00;;
36799;SDS011;22752;51.960;5.886;2023-04-03T04:57:26;7.17;;;2.70;;
36799;SDS011;22752;51.960;5.886;2023-04-03T04:59:51;14.33;;;2.93;;
36799;SDS011;22752;51.960;5.886;2023-04-03T05:02:17;5.87;;;2.50;;
36799;SDS011;22752;51.960;5.886;2023-04-03T05:04:43;9.40;;;2.40;;
36799;SDS011;22752;51.960;5.886;2023-04-03T05:07:08;10.70;;;2.63;;
36799;SDS011;22752;51.960;5.886;2023-04-03T05:09:34;11.70;;;3.10;;
36799;SDS011;22752;51.960;5.886;2023-04-03T05:12:00;10.73;;;2.60;;
36799;SDS011;22752;51.960;5.886;2023-04-03T05:14:26;8.33;;;2.70;;
36799;SDS011;22752;51.960;5.886;2023-04-03T05:16:52;7.87;;;2.20;;
36799;SDS011;22752;51.960;5.886;2023-04-03T05:19:19;9.70;;;3.13;;
36799;SDS011;22752;51.960;5.886;2023-04-03T05:21:45;9.57;;;2.83;;
36799;SDS011;22752;51.960;5.886;2023-04-03T05:24:11;10.50;;;2.40;;
36799;SDS011;22752;51.960;5.886;2023-04-03T05:26:37;12.97;;;2.73;;
36799;SDS011;22752;51.960;5.886;2023-04-03T05:29:03;12.13;;;3.00;;
36799;SDS011;22752;51.960;5.886;2023-04-03T05:31:29;7.93;;;2.60;;
36799;SDS011;22752;51.960;5.886;2023-04-03T05:33:55;8.53;;;2.50;;
36799;SDS011;22752;51.960;5.886;2023-04-03T05:36:21;10.07;;;2.80;;
36799;SDS011;22752;51.960;5.886;2023-04-03T05:38:47;10.47;;;2.87;;
36799;SDS011;22752;51.960;5.886;2023-04-03T05:41:13;10.63;;;2.80;;
36799;SDS011;22752;51.960;5.886;2023-04-03T05:43:39;9.47;;;2.60;;
36799;SDS011;22752;51.960;5.886;2023-04-03T05:46:11;7.73;;;2.50;;
36799;SDS011;22752;51.960;5.886;2023-04-03T05:48:41;10.63;;;3.17;;
36799;SDS011;22752;51.960;5.886;2023-04-03T05:51:09;8.20;;;2.60;;
36799;SDS011;22752;51.960;5.886;2023-04-03T05:53:44;7.60;;;2.50;;
36799;SDS011;22752;51.960;5.886;2023-04-03T05:56:10;8.93;;;2.60;;
36799;SDS011;22752;51.960;5.886;2023-04-03T05:58:36;11.73;;;2.50;;
36799;SDS011;22752;51.960;5.886;2023-04-03T06:01:02;11.70;;;2.70;;
36799;SDS011;22752;51.960;5.886;2023-04-03T06:03:28;11.50;;;2.63;;
36799;SDS011;22752;51.960;5.886;2023-04-03T06:05:53;6.90;;;2.50;;
36799;SDS011;22752;51.960;5.886;2023-04-03T06:08:19;5.10;;;2.10;;
36799;SDS011;22752;51.960;5.886;2023-04-03T06:10:45;8.27;;;2.10;;
36799;SDS011;22752;51.960;5.886;2023-04-03T06:13:11;7.70;;;2.60;;
36799;SDS011;22752;51.960;5.886;2023-04-03T06:15:37;7.23;;;2.20;;
36799;SDS011;22752;51.960;5.886;2023-04-03T06:18:04;4.23;;;2.00;;
36799;SDS011;22752;51.960;5.886;2023-04-03T06:20:30;7.43;;;2.37;;
36799;SDS011;22752;51.960;5.886;2023-04-03T06:22:56;8.97;;;2.57;;
36799;SDS011;22752;51.960;5.886;2023-04-03T06:25:22;6.60;;;2.57;;
36799;SDS011;22752;51.960;5.886;2023-04-03T06:27:47;7.60;;;2.27;;
36799;SDS011;22752;51.960;5.886;2023-04-03T06:30:13;9.87;;;2.30;;
36799;SDS011;22752;51.960;5.886;2023-04-03T06:32:39;4.37;;;1.97;;
36799;SDS011;22752;51.960;5.886;2023-04-03T06:35:05;7.07;;;2.63;;
36799;SDS011;22752;51.960;5.886;2023-04-03T06:37:32;6.13;;;2.40;;
36799;SDS011;22752;51.960;5.886;2023-04-03T06:39:57;6.90;;;2.13;;
36799;SDS011;22752;51.960;5.886;2023-04-03T06:42:25;5.73;;;2.20;;
36799;SDS011;22752;51.960;5.886;2023-04-03T06:44:51;6.03;;;2.30;;
36799;SDS011;22752;51.960;5.886;2023-04-03T06:47:17;5.93;;;2.13;;
36799;SDS011;22752;51.960;5.886;2023-04-03T06:49:43;6.33;;;2.30;;
36799;SDS011;22752;51.960;5.886;2023-04-03T06:52:09;7.00;;;2.20;;
36799;SDS011;22752;51.960;5.886;2023-04-03T06:54:37;7.53;;;1.90;;
36799;SDS011;22752;51.960;5.886;2023-04-03T06:57:03;7.93;;;2.13;;
36799;SDS011;22752;51.960;5.886;2023-04-03T06:59:29;6.70;;;2.20;;
36799;SDS011;22752;51.960;5.886;2023-04-03T07:01:55;7.77;;;2.43;;
36799;SDS011;22752;51.960;5.886;2023-04-03T07:04:21;7.57;;;2.20;;
36799;SDS011;22752;51.960;5.886;2023-04-03T07:06:46;6.57;;;2.13;;
36799;SDS011;22752;51.960;5.886;2023-04-03T07:09:13;7.07;;;2.23;;
36799;SDS011;22752;51.960;5.886;2023-04-03T07:11:39;7.33;;;2.10;;
36799;SDS011;22752;51.960;5.886;2023-04-03T07:14:05;7.73;;;2.30;;
36799;SDS011;22752;51.960;5.886;2023-04-03T07:16:33;8.40;;;2.23;;
36799;SDS011;22752;51.960;5.886;2023-04-03T07:18:59;4.87;;;2.00;;
36799;SDS011;22752;51.960;5.886;2023-04-03T07:21:25;6.07;;;1.90;;
36799;SDS011;22752;51.960;5.886;2023-04-03T07:23:51;4.60;;;1.90;;
36799;SDS011;22752;51.960;5.886;2023-04-03T07:26:16;6.10;;;1.90;;
36799;SDS011;22752;51.960;5.886;2023-04-03T07:28:42;6.70;;;2.13;;
36799;SDS011;22752;51.960;5.886;2023-04-03T07:31:12;7.60;;;2.20;;
36799;SDS011;22752;51.960;5.886;2023-04-03T07:33:38;4.47;;;2.20;;
36799;SDS011;22752;51.960;5.886;2023-04-03T07:36:05;5.17;;;2.23;;
36799;SDS011;22752;51.960;5.886;2023-04-03T07:38:32;5.20;;;1.77;;
36799;SDS011;22752;51.960;5.886;2023-04-03T07:40:58;7.70;;;2.23;;
36799;SDS011;22752;51.960;5.886;2023-04-03T07:43:24;6.03;;;2.03;;
36799;SDS011;22752;51.960;5.886;2023-04-03T07:45:50;4.67;;;2.03;;
36799;SDS011;22752;51.960;5.886;2023-04-03T07:48:23;5.17;;;1.90;;
36799;SDS011;22752;51.960;5.886;2023-04-03T07:50:50;4.50;;;1.70;;
36799;SDS011;22752;51.960;5.886;2023-04-03T07:53:17;8.03;;;2.27;;
36799;SDS011;22752;51.960;5.886;2023-04-03T07:55:42;7.20;;;2.17;;
36799;SDS011;22752;51.960;5.886;2023-04-03T07:58:11;9.33;;;2.40;;
36799;SDS011;22752;51.960;5.886;2023-04-03T08:00:39;5.20;;;1.87;;
36799;SDS011;22752;51.960;5.886;2023-04-03T08:03:05;4.37;;;1.93;;
36799;SDS011;22752;51.960;5.886;2023-04-03T08:05:37;5.23;;;2.00;;
36799;SDS011;22752;51.960;5.886;2023-04-03T08:08:04;5.00;;;1.80;;
36799;SDS011;22752;51.960;5.886;2023-04-03T08:10:31;4.73;;;1.60;;
36799;SDS011;22752;51.960;5.886;2023-04-03T08:12:57;6.30;;;1.70;;
36799;SDS011;22752;51.960;5.886;2023-04-03T08:15:23;3.50;;;1.50;;
36799;SDS011;22752;51.960;5.886;2023-04-03T08:17:49;4.53;;;1.80;;
36799;SDS011;22752;51.960;5.886;2023-04-03T08:20:15;6.93;;;2.17;;
36799;SDS011;22752;51.960;5.886;2023-04-03T08:22:41;5.70;;;1.93;;
36799;SDS011;22752;51.960;5.886;2023-04-03T08:25:07;6.20;;;2.20;;
36799;SDS011;22752;51.960;5.886;2023-04-03T08:27:33;6.30;;;2.00;;
36799;SDS011;22752;51.960;5.886;2023-04-03T08:29:59;5.70;;;1.70;;
36799;SDS011;22752;51.960;5.886;2023-04-03T08:32:24;4.23;;;1.70;;
36799;SDS011;22752;51.960;5.886;2023-04-03T08:34:50;2.70;;;1.50;;
36799;SDS011;22752;51.960;5.886;2023-04-03T08:37:16;6.23;;;1.53;;
36799;SDS011;22752;51.960;5.886;2023-04-03T08:39:42;2.77;;;1.43;;
36799;SDS011;22752;51.960;5.886;2023-04-03T08:48:00;4.60;;;1.73;;
36799;SDS011;22752;51.960;5.886;2023-04-03T08:50:37;4.67;;;1.40;;
36799;SDS011;22752;51.960;5.886;2023-04-03T08:53:17;3.43;;;1.20;;
36799;SDS011;22752;51.960;5.886;2023-04-03T08:55:50;2.70;;;1.17;;
36799;SDS011;22752;51.960;5.886;2023-04-03T09:01:12;3.97;;;1.20;;
36799;SDS011;22752;51.960;5.886;2023-04-03T09:03:43;2.33;;;1.10;;
36799;SDS011;22752;51.960;5.886;2023-04-03T09:06:21;3.13;;;1.03;;
36799;SDS011;22752;51.960;5.886;2023-04-03T09:09:05;2.13;;;1.20;;
36799;SDS011;22752;51.960;5.886;2023-04-03T09:11:41;2.10;;;1.23;;
36799;SDS011;22752;51.960;5.886;2023-04-03T09:14:53;3.40;;;1.40;;
36799;SDS011;22752;51.960;5.886;2023-04-03T09:20:17;1.30;;;0.67;;
36799;SDS011;22752;51.960;5.886;2023-04-03T09:22:50;2.70;;;0.90;;
36799;SDS011;22752;51.960;5.886;2023-04-03T09:25:23;3.57;;;0.93;;
36799;SDS011;22752;51.960;5.886;2023-04-03T09:27:52;1.80;;;0.83;;
36799;SDS011;22752;51.960;5.886;2023-04-03T09:30:19;1.57;;;0.60;;
36799;SDS011;22752;51.960;5.886;2023-04-03T09:32:48;1.97;;;0.90;;
36799;SDS011;22752;51.960;5.886;2023-04-03T09:35:21;1.10;;;0.70;;
36799;SDS011;22752;51.960;5.886;2023-04-03T09:37:48;1.10;;;0.67;;
36799;SDS011;22752;51.960;5.886;2023-04-03T09:40:27;0.80;;;0.67;;
36799;SDS011;22752;51.960;5.886;2023-04-03T09:43:17;3.63;;;0.80;;
36799;SDS011;22752;51.960;5.886;2023-04-03T09:45:47;2.27;;;0.50;;
36799;SDS011;22752;51.960;5.886;2023-04-03T09:51:03;0.77;;;0.60;;
36799;SDS011;22752;51.960;5.886;2023-04-03T09:53:39;2.87;;;0.83;;
36799;SDS011;22752;51.960;5.886;2023-04-03T09:58:42;4.67;;;0.90;;
36799;SDS011;22752;51.960;5.886;2023-04-03T10:01:56;1.67;;;0.67;;
36799;SDS011;22752;51.960;5.886;2023-04-03T10:06:44;2.43;;;0.70;;
36799;SDS011;22752;51.960;5.886;2023-04-03T10:09:17;7.00;;;1.07;;
36799;SDS011;22752;51.960;5.886;2023-04-03T10:12:06;1.97;;;0.50;;
36799;SDS011;22752;51.960;5.886;2023-04-03T10:14:53;2.80;;;0.80;;
36799;SDS011;22752;51.960;5.886;2023-04-03T10:27:54;2.87;;;1.00;;
36799;SDS011;22752;51.960;5.886;2023-04-03T10:33:08;3.10;;;1.00;;
36799;SDS011;22752;51.960;5.886;2023-04-03T10:46:38;1.33;;;0.77;;
36799;SDS011;22752;51.960;5.886;2023-04-03T10:52:07;1.97;;;0.70;;
36799;SDS011;22752;51.960;5.886;2023-04-03T10:57:30;1.87;;;1.00;;
36799;SDS011;22752;51.960;5.886;2023-04-03T11:00:03;1.97;;;0.87;;
36799;SDS011;22752;51.960;5.886;2023-04-03T11:02:41;1.80;;;0.80;;
36799;SDS011;22752;51.960;5.886;2023-04-03T11:05:23;3.33;;;1.20;;
36799;SDS011;22752;51.960;5.886;2023-04-03T11:07:57;3.90;;;1.07;;
36799;SDS011;22752;51.960;5.886;2023-04-03T11:15:42;2.70;;;0.80;;
36799;SDS011;22752;51.960;5.886;2023-04-03T11:18:19;4.77;;;1.20;;
36799;SDS011;22752;51.960;5.886;2023-04-03T11:20:56;2.37;;;0.93;;
36799;SDS011;22752;51.960;5.886;2023-04-03T11:23:30;2.13;;;1.00;;
36799;SDS011;22752;51.960;5.886;2023-04-03T11:26:04;2.73;;;1.17;;
36799;SDS011;22752;51.960;5.886;2023-04-03T11:28:36;4.30;;;1.03;;
36799;SDS011;22752;51.960;5.886;2023-04-03T11:33:45;3.00;;;0.80;;
36799;SDS011;22752;51.960;5.886;2023-04-03T11:36:50;0.93;;;0.70;;
36799;SDS011;22752;51.960;5.886;2023-04-03T11:39:28;2.27;;;0.83;;
36799;SDS011;22752;51.960;5.886;2023-04-03T11:42:12;4.93;;;1.07;;
36799;SDS011;22752;51.960;5.886;2023-04-03T11:44:42;2.07;;;0.80;;
36799;SDS011;22752;51.960;5.886;2023-04-03T11:47:09;4.90;;;1.10;;
36799;SDS011;22752;51.960;5.886;2023-04-03T11:49:57;3.23;;;1.17;;
36799;SDS011;22752;51.960;5.886;2023-04-03T12:05:47;2.30;;;0.90;;
36799;SDS011;22752;51.960;5.886;2023-04-03T12:08:23;4.07;;;1.50;;
36799;SDS011;22752;51.960;5.886;2023-04-03T12:16:07;3.93;;;1.30;;
36799;SDS011;22752;51.960;5.886;2023-04-03T12:21:21;4.77;;;1.30;;
36799;SDS011;22752;51.960;5.886;2023-04-03T12:26:51;4.67;;;1.37;;
36799;SDS011;22752;51.960;5.886;2023-04-03T12:29:47;3.50;;;1.07;;
36799;SDS011;22752;51.960;5.886;2023-04-03T12:35:21;2.23;;;1.13;;
36799;SDS011;22752;51.960;5.886;2023-04-03T12:41:23;2.07;;;0.87;;
36799;SDS011;22752;51.960;5.886;2023-04-03T12:47:02;7.40;;;1.10;;
36799;SDS011;22752;51.960;5.886;2023-04-03T12:49:53;5.47;;;1.40;;
36799;SDS011;22752;51.960;5.886;2023-04-03T12:55:16;2.33;;;1.10;;
36799;SDS011;22752;51.960;5.886;2023-04-03T12:57:43;3.13;;;1.30;;
36799;SDS011;22752;51.960;5.886;2023-04-03T13:00:25;3.07;;;1.00;;
36799;SDS011;22752;51.960;5.886;2023-04-03T13:02:58;1.93;;;1.17;;
36799;SDS011;22752;51.960;5.886;2023-04-03T13:05:25;4.40;;;1.03;;
36799;SDS011;22752;51.960;5.886;2023-04-03T13:07:57;2.33;;;1.10;;
36799;SDS011;22752;51.960;5.886;2023-04-03T13:10:28;3.43;;;1.17;;
36799;SDS011;22752;51.960;5.886;2023-04-03T13:12:55;4.27;;;1.40;;
36799;SDS011;22752;51.960;5.886;2023-04-03T13:15:30;3.07;;;1.20;;
36799;SDS011;22752;51.960;5.886;2023-04-03T13:20:45;2.67;;;1.07;;
36799;SDS011;22752;51.960;5.886;2023-04-03T13:23:14;6.33;;;1.30;;
36799;SDS011;22752;51.960;5.886;2023-04-03T13:25:43;5.13;;;1.30;;
36799;SDS011;22752;51.960;5.886;2023-04-03T13:28:11;2.40;;;1.03;;
36799;SDS011;22752;51.960;5.886;2023-04-03T13:30:40;4.67;;;1.67;;
36799;SDS011;22752;51.960;5.886;2023-04-03T13:33:22;3.27;;;1.10;;
36799;SDS011;22752;51.960;5.886;2023-04-03T13:36:00;4.70;;;1.43;;
36799;SDS011;22752;51.960;5.886;2023-04-03T13:38:31;4.83;;;1.50;;
36799;SDS011;22752;51.960;5.886;2023-04-03T13:41:00;7.57;;;1.63;;
36799;SDS011;22752;51.960;5.886;2023-04-03T13:43:31;3.77;;;1.40;;
36799;SDS011;22752;51.960;5.886;2023-04-03T13:46:03;7.20;;;1.83;;
36799;SDS011;22752;51.960;5.886;2023-04-03T13:48:46;3.70;;;1.57;;
36799;SDS011;22752;51.960;5.886;2023-04-03T13:53:44;1.83;;;0.97;;
36799;SDS011;22752;51.960;5.886;2023-04-03T13:56:18;7.00;;;1.90;;
36799;SDS011;22752;51.960;5.886;2023-04-03T13:58:59;10.63;;;1.47;;
36799;SDS011;22752;51.960;5.886;2023-04-03T14:01:37;3.63;;;1.40;;
36799;SDS011;22752;51.960;5.886;2023-04-03T14:04:11;4.70;;;1.67;;
36799;SDS011;22752;51.960;5.886;2023-04-03T14:06:37;4.87;;;1.40;;
36799;SDS011;22752;51.960;5.886;2023-04-03T14:09:03;3.30;;;1.27;;
36799;SDS011;22752;51.960;5.886;2023-04-03T14:11:29;7.43;;;1.53;;
36799;SDS011;22752;51.960;5.886;2023-04-03T14:13:57;3.53;;;1.43;;
36799;SDS011;22752;51.960;5.886;2023-04-03T14:16:30;8.40;;;1.67;;
36799;SDS011;22752;51.960;5.886;2023-04-03T14:18:58;2.77;;;1.13;;
36799;SDS011;22752;51.960;5.886;2023-04-03T14:21:23;4.37;;;1.63;;
36799;SDS011;22752;51.960;5.886;2023-04-03T14:23:49;5.33;;;1.70;;
36799;SDS011;22752;51.960;5.886;2023-04-03T14:26:20;3.10;;;1.27;;
36799;SDS011;22752;51.960;5.886;2023-04-03T14:28:48;5.10;;;1.87;;
36799;SDS011;22752;51.960;5.886;2023-04-03T14:31:16;3.53;;;1.70;;
36799;SDS011;22752;51.960;5.886;2023-04-03T14:33:42;4.77;;;1.47;;
36799;SDS011;22752;51.960;5.886;2023-04-03T14:38:37;4.30;;;1.40;;
36799;SDS011;22752;51.960;5.886;2023-04-03T14:41:03;5.83;;;1.60;;
36799;SDS011;22752;51.960;5.886;2023-04-03T14:43:28;3.67;;;1.60;;
36799;SDS011;22752;51.960;5.886;2023-04-03T14:45:54;4.77;;;1.50;;
36799;SDS011;22752;51.960;5.886;2023-04-03T14:48:21;3.27;;;1.50;;
36799;SDS011;22752;51.960;5.886;2023-04-03T14:50:49;5.10;;;1.70;;
36799;SDS011;22752;51.960;5.886;2023-04-03T14:53:16;5.37;;;1.87;;
36799;SDS011;22752;51.960;5.886;2023-04-03T14:55:46;6.40;;;1.70;;
36799;SDS011;22752;51.960;5.886;2023-04-03T14:58:14;3.97;;;1.60;;
36799;SDS011;22752;51.960;5.886;2023-04-03T15:00:42;3.37;;;1.53;;
36799;SDS011;22752;51.960;5.886;2023-04-03T15:03:12;7.13;;;1.20;;
36799;SDS011;22752;51.960;5.886;2023-04-03T15:05:43;3.70;;;1.40;;
36799;SDS011;22752;51.960;5.886;2023-04-03T15:08:21;4.83;;;1.60;;
36799;SDS011;22752;51.960;5.886;2023-04-03T15:10:54;4.43;;;1.50;;
36799;SDS011;22752;51.960;5.886;2023-04-03T15:13:20;4.00;;;1.47;;
36799;SDS011;22752;51.960;5.886;2023-04-03T15:15:47;3.73;;;1.53;;
36799;SDS011;22752;51.960;5.886;2023-04-03T15:18:24;2.87;;;1.40;;
36799;SDS011;22752;51.960;5.886;2023-04-03T15:20:52;5.13;;;1.40;;
36799;SDS011;22752;51.960;5.886;2023-04-03T15:23:18;5.27;;;1.30;;
36799;SDS011;22752;51.960;5.886;2023-04-03T15:25:45;3.80;;;1.50;;
36799;SDS011;22752;51.960;5.886;2023-04-03T15:28:21;3.10;;;1.23;;
36799;SDS011;22752;51.960;5.886;2023-04-03T15:30:55;3.75;;;1.58;;
36799;SDS011;22752;51.960;5.886;2023-04-03T15:33:20;6.40;;;1.80;;
36799;SDS011;22752;51.960;5.886;2023-04-03T15:35:47;8.00;;;2.00;;
36799;SDS011;22752;51.960;5.886;2023-04-03T15:38:13;5.70;;;1.60;;
36799;SDS011;22752;51.960;5.886;2023-04-03T15:40:38;3.57;;;1.30;;
36799;SDS011;22752;51.960;5.886;2023-04-03T15:43:05;5.47;;;1.50;;
36799;SDS011;22752;51.960;5.886;2023-04-03T15:45:32;4.33;;;1.47;;
36799;SDS011;22752;51.960;5.886;2023-04-03T15:47:59;4.17;;;1.60;;
36799;SDS011;22752;51.960;5.886;2023-04-03T15:50:25;4.43;;;1.20;;
36799;SDS011;22752;51.960;5.886;2023-04-03T15:52:51;4.73;;;2.07;;
36799;SDS011;22752;51.960;5.886;2023-04-03T15:55:26;5.87;;;2.03;;
36799;SDS011;22752;51.960;5.886;2023-04-03T15:57:53;4.73;;;1.40;;
36799;SDS011;22752;51.960;5.886;2023-04-03T16:00:19;3.50;;;1.40;;
36799;SDS011;22752;51.960;5.886;2023-04-03T16:02:46;3.63;;;1.57;;
36799;SDS011;22752;51.960;5.886;2023-04-03T16:05:21;5.73;;;1.83;;
36799;SDS011;22752;51.960;5.886;2023-04-03T16:07:50;3.90;;;1.60;;
36799;SDS011;22752;51.960;5.886;2023-04-03T16:10:16;3.43;;;1.33;;
36799;SDS011;22752;51.960;5.886;2023-04-03T16:12:43;2.97;;;1.60;;
36799;SDS011;22752;51.960;5.886;2023-04-03T16:15:09;5.27;;;1.70;;
36799;SDS011;22752;51.960;5.886;2023-04-03T16:17:36;5.90;;;2.00;;
36799;SDS011;22752;51.960;5.886;2023-04-03T16:20:03;5.70;;;1.50;;
36799;SDS011;22752;51.960;5.886;2023-04-03T16:22:30;3.43;;;1.40;;
36799;SDS011;22752;51.960;5.886;2023-04-03T16:24:55;3.97;;;1.80;;
36799;SDS011;22752;51.960;5.886;2023-04-03T16:27:21;5.63;;;1.67;;
36799;SDS011;22752;51.960;5.886;2023-04-03T16:29:52;7.27;;;1.80;;
36799;SDS011;22752;51.960;5.886;2023-04-03T16:32:21;4.73;;;1.90;;
36799;SDS011;22752;51.960;5.886;2023-04-03T16:34:47;4.23;;;1.63;;
36799;SDS011;22752;51.960;5.886;2023-04-03T16:37:13;5.37;;;2.10;;
36799;SDS011;22752;51.960;5.886;2023-04-03T16:39:39;8.93;;;2.20;;
36799;SDS011;22752;51.960;5.886;2023-04-03T16:42:05;4.07;;;1.70;;
36799;SDS011;22752;51.960;5.886;2023-04-03T16:44:31;3.70;;;1.57;;